Estación Meteorológica Peña el Pijo (Robertgarden) [ 02/03/23 04:18:31 CET ]

Fecha Hora Presion(HPa) Temp (°C) Humedad % Rocio (°C) Viento ( m/s) Direccion Lluvia 1Hora(mm) Lluvia 24H(mm) LLuvia Total(mm)
2012-Dec-02 01:01:13 1005.700 -3.1 84 -5.5         178.19
2012-Dec-02 02:03:16 1005.500 -3.3 84 -5.7         178.19
2012-Dec-02 03:01:18 1006.300 -4.1 85 -6.2         178.19
2012-Dec-02 04:01:14 1006.800 -3.8 84 -6.1         178.19
2012-Dec-02 05:01:13 1006.900 -4.6 85 -6.8         178.19
2012-Dec-02 06:01:13 1007.400 -4.4 84 -6.7         178.19
2012-Dec-02 07:01:15 1007.800 -4.4 83 -6.8         178.19
2012-Dec-02 08:01:12 1008.100 -4.4 81 -7.2         178.19
2012-Dec-02 09:01:11 1009.500 -4.6 82 -7.2         178.19
2012-Dec-02 10:01:13 1010.000 1.2 76 -2.6         178.19
2012-Dec-02 11:01:14 1010.700 6.5 52 -2.7         178.19
2012-Dec-02 12:01:17 1010.900 9.1 39 -4.2         178.19
2012-Dec-02 13:01:16 1010.600 10.9 31 -5.6         178.19
2012-Dec-02 14:01:18 1010.500 10.1 29 -7.2 1.7 SSW     178.19
2012-Dec-02 15:01:15 1010.900 11.2 28 -6.8         178.19
2012-Dec-02 16:01:14 1010.900 10.4 31 -6.1         178.19
2012-Dec-02 17:01:18 1011.700 6.3 38 -7.1         178.19
2012-Dec-02 18:01:24 1012.400 3.3 46 -7.3         178.19
2012-Dec-02 19:01:14 1013.000 1.1 55 -7.0         178.19
2012-Dec-02 20:01:15 1013.700 0.1 59 -7.0         178.19
2012-Dec-02 21:01:11 1014.300 -1.1 63 -7.3         178.19
2012-Dec-02 22:01:19 1014.900 -2.4 68 -7.5         178.19
2012-Dec-02 23:01:17 1014.900 -2.7 71 -7.2         178.19

Temperatura Máxima:11°    Temperatura Mínima:-4°
Presión Máxima:1014.900 Hpa    Presión Mínima:1005.500 Hpa


Volver